Главная страница
METAR-TAF:

METAR-TAF

Аэропорты :

военная авиабаза

Тульн-на-Дунае, Австрия

широта: 48-19N, долгота: 016-07E, высота над уровнем моря: 175 м

METAR: отсутствует

Время: 03:45 (02:45 UTC)

Прогноз

Эта сводка был подготовлена 15 часа и 30 минут назад, в 11:15 UTC
Прогноз действительный с 09-го 12 UTC до 09-го 21 UTC
Ветер 3 Узел переменных направлений
Видимость 10 км и более
небольшая облачность на высоте 5000 фута
Рассеянная облачность на высоте 10000 фута
временами
С 09-го 12 UTC до 09-го 15 UTC
небольшая облачность на высоте 1000 фута
Рассеянная облачность на высоте 5000 фута
небольшой дождь

TAF: LOXT 091115Z 0912/0921 VRB03KT 9999 FEW050 BKN100 TEMPO 0912/0915 -RA FEW010 BKN050

Метеонаблюдения и прогнозы для более 4000 аэропортов (сводки METAR и TAF).

Имеющиеся станции представлены на карте желтыми и красными точками.

Чтобы увидеть название станции, наведите на нее мышь.

Затем щелкните, чтобы увидеть метеонаблюдения и метеопрогнозы.

Управление картой: чтобы увеличить масштаб, щелкните зеленые кнопки с черным крестиком; чтобы уменьшить масштаб, щелкните зеленую кнопку с тире; для просмотра соседних карт щелкайте зеленые стрелки.


METAR-TAF: